Time;durP1;ratioP1;P1;durP2;ratioP2;P2;SDS_P1;SDS_P2;PMS_P1;PMS_P2;Temp;Humidity;BMP_temperature;BMP_pressure;BME280_temperature;BME280_humidity;BME280_pressure;Samples;Min_cycle;Max_cycle;Signal;HPM_P1;HPM_P2
2022/01/08 00:00:17;;;;;;;12.27;6.57;;;-0.80;61.20;;;;;;5095930;28;20024;-19
2022/01/08 00:02:44;;;;;;;18.63;11.20;;;-0.80;61.20;;;;;;5096838;28;20031;-20
2022/01/08 00:05:11;;;;;;;8.05;4.88;;;-0.90;62.20;;;;;;5096292;28;20016;-20
2022/01/08 00:07:37;;;;;;;10.07;6.13;;;-0.80;61.90;;;;;;5096019;28;20034;-20
2022/01/08 00:10:05;;;;;;;13.32;7.38;;;-0.90;62.00;;;;;;5095969;28;20115;-20
2022/01/08 00:12:30;;;;;;;6.28;3.25;;;-1.00;62.20;;;;;;5096010;28;20032;-20
2022/01/08 00:14:56;;;;;;;5.60;3.28;;;-1.00;61.80;;;;;;5096057;28;20587;-20
2022/01/08 00:17:23;;;;;;;9.60;5.32;;;-1.00;61.60;;;;;;5094563;28;20436;-20
2022/01/08 00:19:50;;;;;;;9.77;4.88;;;-1.00;61.70;;;;;;5096273;28;20027;-20
2022/01/08 00:22:16;;;;;;;4.85;2.90;;;-1.10;61.90;;;;;;5096123;28;20582;-20
2022/01/08 00:24:42;;;;;;;10.85;5.07;;;-1.10;61.70;;;;;;5094619;28;20123;-20
2022/01/08 00:27:08;;;;;;;10.75;5.40;;;-1.10;61.90;;;;;;5095519;28;20103;-20
2022/01/08 00:29:34;;;;;;;11.73;6.65;;;-1.10;61.90;;;;;;5094431;28;20115;-20
2022/01/08 00:32:00;;;;;;;8.00;4.53;;;-1.20;61.90;;;;;;5095582;28;20177;-20
2022/01/08 00:34:26;;;;;;;8.55;4.35;;;-1.20;62.30;;;;;;5095648;28;20032;-20
2022/01/08 00:36:52;;;;;;;6.70;4.40;;;-1.20;62.60;;;;;;5095706;28;20586;-20
2022/01/08 00:39:18;;;;;;;5.75;3.67;;;-1.30;62.40;;;;;;5095461;28;20035;-20
2022/01/08 00:41:44;;;;;;;13.45;7.22;;;-1.30;62.30;;;;;;5095747;28;20016;-20
2022/01/08 00:44:10;;;;;;;13.68;7.50;;;-1.30;62.50;;;;;;5095313;28;20054;-20
2022/01/08 00:46:36;;;;;;;14.98;8.55;;;-1.30;62.80;;;;;;5094986;28;20028;-20
2022/01/08 00:49:03;;;;;;;16.80;9.68;;;-1.40;63.40;;;;;;5095577;28;20028;-20
2022/01/08 00:51:29;;;;;;;17.17;10.05;;;-1.40;63.80;;;;;;5095428;28;20024;-20
2022/01/08 00:53:55;;;;;;;17.58;8.82;;;-1.30;64.60;;;;;;5095448;28;20050;-20
2022/01/08 00:56:21;;;;;;;24.98;13.30;;;-1.30;65.10;;;;;;5094875;28;20021;-20
2022/01/08 00:58:47;;;;;;;27.17;15.77;;;-1.30;65.50;;;;;;5094997;28;20017;-20
2022/01/08 01:01:13;;;;;;;27.25;14.40;;;-1.30;66.30;;;;;;5095284;28;20099;-20
2022/01/08 01:03:39;;;;;;;23.95;13.43;;;-1.30;66.40;;;;;;5095275;28;20126;-20
2022/01/08 01:06:06;;;;;;;16.63;8.93;;;-1.20;65.90;;;;;;5094848;28;20123;-20
2022/01/08 01:08:33;;;;;;;12.90;6.82;;;-1.20;66.60;;;;;;5094932;28;20047;-20
2022/01/08 01:10:59;;;;;;;18.63;10.25;;;-1.20;65.40;;;;;;5094808;28;20480;-20
2022/01/08 01:13:25;;;;;;;25.98;14.68;;;-1.20;64.80;;;;;;5095040;28;20028;-20
2022/01/08 01:15:51;;;;;;;17.45;9.70;;;-1.20;64.70;;;;;;5095030;28;20380;-20
2022/01/08 01:18:17;;;;;;;21.48;11.25;;;-1.20;64.80;;;;;;5094494;28;20058;-20
2022/01/08 01:20:43;;;;;;;13.38;7.88;;;-1.10;64.60;;;;;;5093564;28;20039;-20
2022/01/08 01:23:14;;;;;;;25.58;14.73;;;-1.10;64.40;;;;;;5094322;28;20461;-19
2022/01/08 01:25:50;;;;;;;10.82;5.75;;;-1.10;64.80;;;;;;5094497;28;20115;-20
2022/01/08 01:41:36;;;;;;;12.80;7.43;;;-1.00;64.60;;;;;;5094346;28;20031;-20
2022/01/08 01:49:17;;;;;;;9.85;5.38;;;-0.90;65.90;;;;;;5094591;28;20549;-20
2022/01/08 01:51:44;;;;;;;9.05;5.10;;;-0.70;65.10;;;;;;5093938;28;20016;-20
2022/01/08 01:54:11;;;;;;;8.38;4.70;;;-0.70;64.50;;;;;;5093997;28;20073;-20
2022/01/08 01:56:38;;;;;;;15.82;9.93;;;-0.60;64.10;;;;;;5093804;28;20063;-20
2022/01/08 01:59:04;;;;;;;21.50;11.55;;;-0.50;64.00;;;;;;5094229;28;20027;-20
2022/01/08 02:01:31;;;;;;;11.35;6.60;;;-0.50;64.10;;;;;;5093892;28;20476;-19
2022/01/08 02:03:57;;;;;;;7.28;4.32;;;-0.40;63.90;;;;;;5093894;28;20416;-20
2022/01/08 02:06:24;;;;;;;10.98;5.50;;;-0.40;63.50;;;;;;5093385;28;20036;-20
2022/01/08 02:08:50;;;;;;;16.63;10.70;;;-0.30;63.20;;;;;;5093672;28;20111;-19
2022/01/08 02:11:19;;;;;;;16.20;9.43;;;-0.30;63.20;;;;;;5093783;28;20098;-19
2022/01/08 02:13:45;;;;;;;19.38;11.95;;;-0.30;63.40;;;;;;5093921;28;20028;-19
2022/01/08 02:16:17;;;;;;;19.42;11.82;;;-0.30;63.30;;;;;;5093637;28;20503;-20
2022/01/08 02:18:47;;;;;;;19.10;10.57;;;-0.30;64.00;;;;;;5093968;28;20020;-20
2022/01/08 02:21:15;;;;;;;7.55;4.40;;;-0.30;63.60;;;;;;5093440;28;20028;-19
2022/01/08 02:23:42;;;;;;;8.02;4.32;;;-0.30;63.10;;;;;;5093479;28;20089;-20
2022/01/08 02:26:10;;;;;;;7.95;4.20;;;-0.30;62.90;;;;;;5093760;28;20527;-20
2022/01/08 02:28:39;;;;;;;6.82;3.95;;;-0.30;62.80;;;;;;5093242;28;20035;-20
2022/01/08 02:31:05;;;;;;;11.38;6.50;;;-0.40;62.80;;;;;;5093743;28;20044;-19
2022/01/08 02:33:32;;;;;;;10.82;5.30;;;-0.40;62.90;;;;;;5093729;28;20031;-19
2022/01/08 02:36:03;;;;;;;6.72;3.65;;;-0.40;62.70;;;;;;5093481;28;20020;-20
2022/01/08 02:38:30;;;;;;;7.32;4.28;;;-0.50;62.60;;;;;;5093164;28;20020;-19
2022/01/08 02:41:00;;;;;;;5.70;3.28;;;-0.50;62.60;;;;;;5093605;28;20051;-19
2022/01/08 02:43:28;;;;;;;7.97;4.45;;;-0.50;62.60;;;;;;5093726;28;20114;-20
2022/01/08 02:45:54;;;;;;;7.00;4.00;;;-0.60;62.60;;;;;;5093471;28;20024;-20
2022/01/08 02:48:21;;;;;;;7.97;4.13;;;-0.60;62.70;;;;;;5092790;28;20032;-19
2022/01/08 02:50:47;;;;;;;6.65;3.40;;;-0.70;62.70;;;;;;5094196;28;20020;-19
2022/01/08 02:53:14;;;;;;;6.07;3.20;;;-0.80;62.60;;;;;;5093429;28;20020;-19
2022/01/08 02:55:40;;;;;;;9.18;5.13;;;-0.80;62.70;;;;;;5094012;28;20103;-19
2022/01/08 02:58:06;;;;;;;7.32;4.15;;;-0.90;62.70;;;;;;5093184;28;20035;-19
2022/01/08 03:00:32;;;;;;;14.40;7.30;;;-1.00;62.90;;;;;;5093363;28;20032;-19
2022/01/08 03:02:58;;;;;;;14.00;8.52;;;-1.00;63.10;;;;;;5093048;28;20057;-19
2022/01/08 03:05:24;;;;;;;13.85;7.05;;;-1.10;63.10;;;;;;5093208;28;20036;-20
2022/01/08 03:07:51;;;;;;;14.82;8.82;;;-1.10;63.40;;;;;;5093324;28;20032;-19
2022/01/08 03:10:18;;;;;;;12.25;6.50;;;-1.20;63.90;;;;;;5093104;28;20024;-19
2022/01/08 03:12:46;;;;;;;16.73;8.60;;;-1.30;63.70;;;;;;5093307;28;20055;-19
2022/01/08 03:15:22;;;;;;;14.32;8.63;;;-1.30;64.60;;;;;;5093307;28;20021;-19
2022/01/08 03:17:49;;;;;;;10.93;5.72;;;-1.30;64.10;;;;;;5091755;28;20365;-19
2022/01/08 03:20:16;;;;;;;6.63;4.05;;;-1.40;64.00;;;;;;5092940;28;20028;-19
2022/01/08 03:22:46;;;;;;;19.00;9.75;;;-1.50;64.20;;;;;;5093005;28;20052;-20
2022/01/08 03:25:14;;;;;;;10.18;6.80;;;-1.50;64.00;;;;;;5093155;28;20028;-19
2022/01/08 03:27:44;;;;;;;6.50;4.07;;;-1.50;64.10;;;;;;5093059;28;20028;-19
2022/01/08 03:30:12;;;;;;;18.17;9.25;;;-1.60;64.20;;;;;;5092900;28;20033;-19
2022/01/08 03:32:39;;;;;;;8.63;4.47;;;-1.60;64.10;;;;;;5093123;28;20058;-20
2022/01/08 03:35:06;;;;;;;14.60;8.18;;;-1.70;64.40;;;;;;5093023;28;20051;-20
2022/01/08 03:37:31;;;;;;;9.40;5.88;;;-1.80;64.40;;;;;;5093098;28;20028;-19
2022/01/08 03:39:57;;;;;;;9.65;5.25;;;-1.80;64.50;;;;;;5092763;28;20085;-20
2022/01/08 03:42:23;;;;;;;8.40;5.00;;;-1.90;64.60;;;;;;5091398;28;20032;-20
2022/01/08 03:44:49;;;;;;;8.63;4.40;;;-1.90;64.60;;;;;;5092550;28;20028;-19
2022/01/08 03:49:55;;;;;;;10.18;5.70;;;-2.00;64.70;;;;;;5092685;28;20048;-20
2022/01/08 03:52:22;;;;;;;7.60;3.63;;;-2.00;64.80;;;;;;5092928;28;20024;-20
2022/01/08 03:54:48;;;;;;;5.03;3.15;;;-2.10;64.70;;;;;;5091371;28;20032;-19
2022/01/08 03:57:20;;;;;;;7.72;4.55;;;-2.10;64.70;;;;;;5092628;28;20020;-19
2022/01/08 03:59:46;;;;;;;8.45;4.38;;;-2.20;64.80;;;;;;5092780;28;20442;-20
2022/01/08 04:02:12;;;;;;;13.52;7.70;;;-2.20;65.10;;;;;;5096437;28;20017;-19
2022/01/08 04:04:38;;;;;;;4.93;3.22;;;-2.20;65.20;;;;;;5096375;28;20028;-20
2022/01/08 04:07:04;;;;;;;5.53;3.47;;;-2.30;65.10;;;;;;5096048;28;20483;-19
2022/01/08 04:09:30;;;;;;;19.23;8.38;;;-2.30;65.10;;;;;;5096362;28;20020;-19
2022/01/08 04:11:56;;;;;;;12.73;7.53;;;-2.40;65.10;;;;;;5096291;28;20067;-19
2022/01/08 04:14:22;;;;;;;8.77;5.03;;;-2.40;65.60;;;;;;5095974;28;20032;-20
2022/01/08 04:16:52;;;;;;;10.13;5.47;;;-2.40;66.20;;;;;;5095962;28;20361;-19
2022/01/08 04:19:19;;;;;;;20.75;12.13;;;-2.50;65.70;;;;;;5095866;28;20107;-22
2022/01/08 04:24:14;;;;;;;7.93;4.55;;;-2.50;66.10;;;;;;5094210;28;20180;-19
2022/01/08 04:26:40;;;;;;;14.48;7.63;;;-2.50;66.00;;;;;;5096157;28;20027;-19
2022/01/08 04:29:07;;;;;;;11.75;5.85;;;-2.40;65.80;;;;;;5096177;28;20032;-19
2022/01/08 04:31:33;;;;;;;5.68;3.42;;;-2.40;66.00;;;;;;5095616;28;20032;-19
2022/01/08 04:33:59;;;;;;;16.10;9.27;;;-2.30;65.80;;;;;;5095624;28;20032;-19
2022/01/08 04:36:25;;;;;;;18.13;11.25;;;-2.30;65.70;;;;;;5095517;28;20020;-19
2022/01/08 04:38:51;;;;;;;13.60;6.93;;;-2.30;66.00;;;;;;5095509;28;20089;-19
2022/01/08 04:41:17;;;;;;;5.55;3.67;;;-2.30;65.80;;;;;;5095750;28;20070;-19
2022/01/08 04:43:44;;;;;;;10.93;4.75;;;-2.20;65.70;;;;;;5095874;28;20387;-19
2022/01/08 04:46:11;;;;;;;7.43;3.50;;;-2.20;65.50;;;;;;5095368;28;20125;-19
2022/01/08 04:48:38;;;;;;;5.50;3.10;;;-2.20;65.30;;;;;;5095211;28;20560;-19
2022/01/08 04:51:04;;;;;;;7.30;4.20;;;-2.20;65.20;;;;;;5095323;28;20020;-19
2022/01/08 04:53:30;;;;;;;6.40;3.47;;;-2.20;65.00;;;;;;5095199;28;20032;-19
2022/01/08 04:55:56;;;;;;;15.30;8.38;;;-2.30;65.00;;;;;;5095216;28;20028;-19
2022/01/08 04:58:22;;;;;;;9.88;5.47;;;-2.30;65.00;;;;;;5095224;28;20028;-19
2022/01/08 05:00:48;;;;;;;17.02;8.88;;;-2.30;65.20;;;;;;5095317;28;20020;-19
2022/01/08 05:03:14;;;;;;;6.95;3.53;;;-2.30;65.20;;;;;;5095007;28;20110;-19
2022/01/08 05:05:40;;;;;;;15.38;7.80;;;-2.30;65.20;;;;;;5095027;28;20028;-19
2022/01/08 05:08:07;;;;;;;19.38;11.70;;;-2.40;65.10;;;;;;5095213;28;20035;-19
2022/01/08 05:10:34;;;;;;;16.77;10.18;;;-2.40;65.50;;;;;;5094561;28;20381;-19
2022/01/08 05:13:05;;;;;;;16.88;9.57;;;-2.50;65.90;;;;;;5094797;28;20035;-19
2022/01/08 05:15:33;;;;;;;17.63;9.32;;;-2.50;65.60;;;;;;5094833;28;20032;-19
2022/01/08 05:18:00;;;;;;;15.45;7.03;;;-2.50;65.80;;;;;;5094694;28;20119;-19
2022/01/08 05:20:31;;;;;;;9.48;4.95;;;-2.50;65.70;;;;;;5094338;28;20036;-19
2022/01/08 05:23:00;;;;;;;19.73;11.20;;;-2.60;65.60;;;;;;5094478;28;20024;-19
2022/01/08 05:25:28;;;;;;;11.15;6.30;;;-2.70;66.20;;;;;;5094547;28;20426;-19
2022/01/08 05:27:55;;;;;;;13.88;7.10;;;-2.70;66.20;;;;;;5095123;28;20028;-19
2022/01/08 05:30:23;;;;;;;6.45;3.38;;;-2.70;65.70;;;;;;5094586;28;20020;-19
2022/01/08 05:32:50;;;;;;;20.30;10.13;;;-2.80;65.80;;;;;;5094737;28;20103;-19
2022/01/08 05:35:16;;;;;;;7.95;4.47;;;-2.80;66.10;;;;;;5094588;28;20032;-19
2022/01/08 05:37:43;;;;;;;15.90;8.77;;;-2.80;66.50;;;;;;5094362;28;20492;-19
2022/01/08 05:40:10;;;;;;;8.45;4.57;;;-2.90;66.50;;;;;;5094237;28;20073;-19
2022/01/08 05:42:36;;;;;;;13.23;8.68;;;-2.90;66.80;;;;;;5094204;28;20026;-19
2022/01/08 05:45:04;;;;;;;15.43;8.00;;;-2.90;66.50;;;;;;5094051;28;20024;-19
2022/01/08 05:47:32;;;;;;;20.63;12.43;;;-2.90;66.40;;;;;;5094367;28;20391;-19
2022/01/08 05:49:59;;;;;;;19.88;12.38;;;-3.00;67.80;;;;;;5094292;28;20020;-19
2022/01/08 05:52:25;;;;;;;22.02;12.02;;;-3.00;67.50;;;;;;5094179;28;20039;-19
2022/01/08 05:54:52;;;;;;;18.88;10.23;;;-3.00;68.00;;;;;;5094026;28;20012;-19
2022/01/08 05:57:18;;;;;;;17.80;10.80;;;-3.00;68.50;;;;;;5094187;28;20024;-19
2022/01/08 05:59:44;;;;;;;22.00;11.57;;;-3.00;68.30;;;;;;5093959;28;20056;-19
2022/01/08 06:02:10;;;;;;;8.63;4.80;;;-3.00;68.20;;;;;;5094079;28;20059;-19
2022/01/08 06:04:36;;;;;;;8.50;4.65;;;-3.00;67.70;;;;;;5093622;28;20071;-19
2022/01/08 06:07:04;;;;;;;7.95;4.40;;;-2.90;67.10;;;;;;5092517;28;20024;-19
2022/01/08 06:09:30;;;;;;;9.13;4.93;;;-2.90;67.10;;;;;;5094077;28;20491;-19
2022/01/08 06:11:56;;;;;;;9.50;4.82;;;-2.80;67.00;;;;;;5092505;28;20100;-19
2022/01/08 06:14:22;;;;;;;17.75;9.23;;;-2.80;66.80;;;;;;5093786;28;20024;-19
2022/01/08 06:16:49;;;;;;;8.43;4.25;;;-2.80;66.70;;;;;;5093690;28;20499;-19
2022/01/08 06:19:15;;;;;;;16.48;9.02;;;-2.70;66.40;;;;;;5093618;28;20032;-19
2022/01/08 06:21:42;;;;;;;7.75;3.80;;;-2.80;66.40;;;;;;5093480;28;20020;-19
2022/01/08 06:24:08;;;;;;;9.35;5.18;;;-2.70;66.40;;;;;;5091363;28;20044;-19
2022/01/08 06:26:34;;;;;;;14.77;6.93;;;-2.70;66.20;;;;;;5093550;28;20028;-19
2022/01/08 06:29:01;;;;;;;7.57;3.90;;;-2.80;66.10;;;;;;5093473;28;20078;-19
2022/01/08 06:31:27;;;;;;;14.77;7.45;;;-2.80;66.00;;;;;;5093706;28;20039;-18
2022/01/08 06:33:54;;;;;;;12.32;6.60;;;-2.80;66.00;;;;;;5093402;28;20020;-19
2022/01/08 06:36:22;;;;;;;7.95;4.43;;;-2.80;66.00;;;;;;5093241;28;20476;-20
2022/01/08 06:38:50;;;;;;;8.80;4.70;;;-2.80;65.90;;;;;;5093291;28;20502;-19
2022/01/08 06:41:16;;;;;;;13.98;6.85;;;-2.90;66.00;;;;;;5093629;28;20016;-19
2022/01/08 06:43:43;;;;;;;8.20;3.75;;;-2.90;66.00;;;;;;5093278;28;20115;-19
2022/01/08 06:46:09;;;;;;;10.55;5.88;;;-2.90;66.00;;;;;;5093488;28;20032;-19
2022/01/08 06:48:35;;;;;;;12.88;6.38;;;-3.00;66.00;;;;;;5091812;28;20028;-19
2022/01/08 06:51:02;;;;;;;14.40;7.88;;;-3.00;66.20;;;;;;5093375;28;20086;-19
2022/01/08 06:53:28;;;;;;;15.57;8.88;;;-3.00;66.60;;;;;;5093419;28;20032;-19
2022/01/08 06:55:54;;;;;;;8.80;4.32;;;-3.00;67.80;;;;;;5093082;28;20073;-19
2022/01/08 06:58:21;;;;;;;6.95;3.80;;;-3.10;67.20;;;;;;5093243;28;20123;-19
2022/01/08 07:00:47;;;;;;;6.10;3.40;;;-3.10;67.00;;;;;;5093423;28;20028;-19
2022/01/08 07:03:14;;;;;;;7.85;4.43;;;-3.10;66.70;;;;;;5093103;28;20028;-19
2022/01/08 07:05:40;;;;;;;6.97;4.07;;;-3.10;66.50;;;;;;5093214;28;20066;-19
2022/01/08 07:08:07;;;;;;;19.67;8.88;;;-3.20;66.50;;;;;;5093611;28;20052;-19
2022/01/08 07:10:34;;;;;;;7.78;4.28;;;-3.20;66.70;;;;;;5093515;28;20039;-19
2022/01/08 07:13:00;;;;;;;7.38;3.53;;;-3.20;66.60;;;;;;5092994;28;20099;-19
2022/01/08 07:15:26;;;;;;;7.63;3.72;;;-3.20;66.70;;;;;;5092983;28;20028;-19
2022/01/08 07:17:52;;;;;;;9.35;5.05;;;-3.20;66.70;;;;;;5092943;28;20016;-19
2022/01/08 07:20:19;;;;;;;5.07;3.20;;;-3.20;66.70;;;;;;5092652;28;20115;-19
2022/01/08 07:22:45;;;;;;;8.40;5.13;;;-3.10;67.00;;;;;;5092953;28;20043;-20
2022/01/08 07:25:12;;;;;;;25.50;14.13;;;-3.10;67.30;;;;;;5091665;28;20488;-19
2022/01/08 07:27:38;;;;;;;14.38;8.82;;;-3.00;67.60;;;;;;5092850;28;20029;-19
2022/01/08 07:30:06;;;;;;;31.40;18.30;;;-3.00;68.40;;;;;;5092764;28;20028;-19
2022/01/08 07:32:32;;;;;;;30.27;15.10;;;-2.90;70.70;;;;;;5092990;28;20028;-19
2022/01/08 07:34:58;;;;;;;29.67;16.42;;;-2.80;69.40;;;;;;5094951;28;20024;-19
2022/01/08 07:37:24;;;;;;;33.50;18.88;;;-2.70;70.50;;;;;;5096593;28;20042;-18
2022/01/08 07:39:50;;;;;;;32.05;17.92;;;-2.60;71.90;;;;;;5095381;28;20550;-19
2022/01/08 07:42:17;;;;;;;17.77;9.95;;;-2.50;72.40;;;;;;5095122;28;20527;-19
2022/01/08 07:44:43;;;;;;;27.98;14.55;;;-2.40;70.90;;;;;;5096766;28;20107;-19
2022/01/08 07:47:09;;;;;;;16.77;8.73;;;-2.40;70.10;;;;;;5096833;28;20104;-19
2022/01/08 07:49:34;;;;;;;39.47;21.70;;;-2.30;70.30;;;;;;5096501;28;20020;-19
2022/01/08 07:52:00;;;;;;;32.85;18.15;;;-2.20;71.10;;;;;;5096625;28;20055;-19
2022/01/08 07:54:26;;;;;;;38.97;22.48;;;-2.20;73.60;;;;;;5096216;28;20601;-19
2022/01/08 07:56:52;;;;;;;42.90;23.98;;;-2.10;73.70;;;;;;5096774;28;20372;-19
2022/01/08 07:59:18;;;;;;;33.65;19.05;;;-2.00;73.70;;;;;;5096223;28;20016;-19
2022/01/08 08:01:44;;;;;;;42.55;22.73;;;-2.00;73.60;;;;;;5096532;28;20024;-19
2022/01/08 08:04:10;;;;;;;28.42;16.52;;;-2.00;74.60;;;;;;5096479;28;20594;-19
2022/01/08 08:06:47;;;;;;;46.83;26.20;;;-1.80;74.60;;;;;;5095709;28;20040;-19
2022/01/08 08:09:14;;;;;;;40.80;23.33;;;-1.80;73.10;;;;;;5096147;28;20034;-19
2022/01/08 08:11:41;;;;;;;47.03;22.95;;;-1.60;73.50;;;;;;5096057;28;20514;-19
2022/01/08 08:14:07;;;;;;;37.50;19.48;;;-1.50;73.50;;;;;;5096124;28;20487;-19
2022/01/08 08:16:33;;;;;;;38.75;20.48;;;-1.30;74.00;;;;;;5095794;28;20020;-19
2022/01/08 08:18:59;;;;;;;32.65;18.08;;;-1.20;73.70;;;;;;5096198;28;20036;-19
2022/01/08 08:21:25;;;;;;;30.17;16.80;;;-1.10;73.60;;;;;;5096049;28;20035;-19
2022/01/08 08:23:51;;;;;;;35.80;20.20;;;-0.90;72.40;;;;;;5095774;28;20044;-19
2022/01/08 08:26:17;;;;;;;28.02;14.70;;;-0.80;72.20;;;;;;5095919;28;20066;-19
2022/01/08 08:28:43;;;;;;;22.17;11.60;;;-0.60;71.40;;;;;;5095565;28;20020;-19
2022/01/08 08:31:11;;;;;;;23.92;13.80;;;-0.40;70.70;;;;;;5096007;28;20111;-19
2022/01/08 08:33:37;;;;;;;22.05;11.68;;;-0.20;70.10;;;;;;5095893;28;20031;-19
2022/01/08 08:36:03;;;;;;;21.30;11.77;;;0.00;69.50;;;;;;5095684;28;20368;-19
2022/01/08 08:38:29;;;;;;;31.23;18.88;;;0.10;69.20;;;;;;5095637;28;20032;-19
2022/01/08 08:40:56;;;;;;;23.13;15.05;;;0.30;69.30;;;;;;5095587;28;20431;-19
2022/01/08 08:43:23;;;;;;;22.83;12.90;;;0.50;68.40;;;;;;5095674;28;20040;-19
2022/01/08 08:45:49;;;;;;;24.33;13.25;;;0.70;68.00;;;;;;5094523;28;20187;-19
2022/01/08 08:48:16;;;;;;;35.70;20.33;;;0.90;67.50;;;;;;5095441;28;20047;-19
2022/01/08 08:50:45;;;;;;;33.13;19.20;;;1.10;67.70;;;;;;5095469;28;20035;-19
2022/01/08 08:53:11;;;;;;;22.85;13.98;;;1.40;67.70;;;;;;5095157;28;20487;-19
2022/01/08 08:55:37;;;;;;;25.63;15.18;;;1.50;67.30;;;;;;5095167;28;20096;-19
2022/01/08 08:58:03;;;;;;;23.52;12.55;;;1.70;65.80;;;;;;5095446;28;20020;-19
2022/01/08 09:00:29;;;;;;;29.05;16.95;;;2.00;65.90;;;;;;5094954;28;20498;-19
2022/01/08 09:02:55;;;;;;;30.10;17.35;;;2.20;66.00;;;;;;5095016;28;20023;-19
2022/01/08 09:05:21;;;;;;;30.77;18.50;;;2.40;65.30;;;;;;5095175;28;20029;-20
2022/01/08 09:07:48;;;;;;;25.67;14.15;;;2.60;64.80;;;;;;5094922;28;20024;-19
2022/01/08 09:10:14;;;;;;;19.15;11.85;;;2.90;64.30;;;;;;5094797;28;20016;-21
2022/01/08 09:12:42;;;;;;;21.42;11.68;;;3.00;64.00;;;;;;5095130;28;20039;-20
2022/01/08 09:15:09;;;;;;;25.10;14.82;;;3.30;63.50;;;;;;5095073;28;20024;-19
2022/01/08 09:17:39;;;;;;;17.60;9.73;;;3.50;63.10;;;;;;5094751;28;20031;-20
2022/01/08 09:20:06;;;;;;;21.30;12.15;;;3.70;62.50;;;;;;5095578;28;20020;-20
2022/01/08 09:39:22;;;;;;;22.90;13.73;;;5.40;57.90;;;;;;5125377;27;20082;-20
2022/01/08 09:41:48;;;;;;;19.45;11.13;;;5.60;57.20;;;;;;5114648;28;20051;-21
2022/01/08 09:44:14;;;;;;;25.25;13.93;;;5.80;57.70;;;;;;5096189;28;20023;-20
2022/01/08 09:46:40;;;;;;;23.02;14.25;;;5.90;57.10;;;;;;5114415;28;20042;-21
2022/01/08 09:49:07;;;;;;;16.65;10.13;;;6.00;57.00;;;;;;5114872;28;20035;-21
2022/01/08 09:51:33;;;;;;;17.30;10.18;;;6.10;56.10;;;;;;5114541;28;20024;-21
2022/01/08 09:54:02;;;;;;;16.02;9.18;;;6.20;55.20;;;;;;5114362;28;20033;-21
2022/01/08 09:56:31;;;;;;;15.93;9.43;;;6.40;56.00;;;;;;5114421;28;20467;-21
2022/01/08 09:58:57;;;;;;;14.77;9.10;;;6.50;56.80;;;;;;5114606;28;20479;-22
2022/01/08 10:01:32;;;;;;;17.42;10.63;;;6.60;54.50;;;;;;5114590;28;20020;-22
2022/01/08 10:03:59;;;;;;;10.32;6.00;;;6.80;54.70;;;;;;5114292;28;20081;-22
2022/01/08 10:06:31;;;;;;;13.85;7.90;;;6.90;56.10;;;;;;5114104;28;20055;-23
2022/01/08 10:08:57;;;;;;;15.02;9.65;;;7.10;55.30;;;;;;5114738;28;20372;-23
2022/01/08 10:11:25;;;;;;;13.32;6.70;;;7.20;54.10;;;;;;5114348;28;20028;-23
2022/01/08 10:14:05;;;;;;;19.92;12.50;;;7.40;54.00;;;;;;5114042;28;20102;-23
2022/01/08 10:19:24;;;;;;;17.02;10.05;;;7.60;53.30;;;;;;5114345;28;20042;-22
2022/01/08 10:21:52;;;;;;;18.08;10.38;;;7.70;53.00;;;;;;5113835;28;20039;-23
2022/01/08 10:24:29;;;;;;;15.90;11.00;;;7.80;52.00;;;;;;5113973;28;20054;-23
2022/01/08 10:27:04;;;;;;;20.73;12.00;;;7.90;52.60;;;;;;5113813;28;20032;-23
2022/01/08 10:29:32;;;;;;;17.38;10.45;;;7.90;51.50;;;;;;5095749;28;20529;-23
2022/01/08 10:31:59;;;;;;;17.85;11.80;;;8.10;51.80;;;;;;5114056;28;20028;-22
2022/01/08 10:34:30;;;;;;;13.70;9.00;;;8.20;50.90;;;;;;5113498;28;20034;-23
2022/01/08 10:36:56;;;;;;;10.73;6.53;;;8.30;51.30;;;;;;5114087;28;20024;-22
2022/01/08 10:39:33;;;;;;;15.90;9.23;;;8.40;51.70;;;;;;5113616;28;20055;-24
2022/01/08 10:42:13;;;;;;;11.48;6.82;;;8.60;51.40;;;;;;5113980;28;20063;-23
2022/01/08 10:44:41;;;;;;;11.30;6.95;;;8.70;51.10;;;;;;5113975;28;20035;-22
2022/01/08 10:47:16;;;;;;;11.75;7.82;;;8.80;51.00;;;;;;5113913;28;20028;-23
2022/01/08 10:50:02;;;;;;;13.07;8.48;;;8.90;51.60;;;;;;5113915;28;20076;-23
2022/01/08 10:52:40;;;;;;;12.82;8.13;;;8.90;51.50;;;;;;5113279;28;20024;-23
2022/01/08 10:55:06;;;;;;;11.52;7.38;;;9.00;49.80;;;;;;5113866;28;20111;-23
2022/01/08 10:57:41;;;;;;;12.00;7.95;;;9.20;49.70;;;;;;5113413;28;20027;-23
2022/01/08 11:00:13;;;;;;;16.52;10.18;;;9.40;51.40;;;;;;5113479;28;20027;-22
2022/01/08 11:02:41;;;;;;;13.30;8.48;;;9.60;49.20;;;;;;5114550;28;20047;-23
2022/01/08 11:05:09;;;;;;;13.50;7.38;;;9.90;50.60;;;;;;5113575;28;20078;-23
2022/01/08 11:07:37;;;;;;;11.93;7.65;;;10.10;50.40;;;;;;5113439;28;20536;-22
2022/01/08 11:10:07;;;;;;;13.73;9.27;;;10.40;49.40;;;;;;5115789;28;20055;-22
2022/01/08 11:12:39;;;;;;;11.85;6.47;;;10.70;48.70;;;;;;5117683;28;20068;-23
2022/01/08 11:17:42;;;;;;;11.88;7.20;;;11.10;48.20;;;;;;5117567;28;20114;-22
2022/01/08 11:20:13;;;;;;;11.20;5.70;;;11.20;48.30;;;;;;5117641;28;20445;-22
2022/01/08 11:22:42;;;;;;;10.98;7.45;;;11.50;48.10;;;;;;5117303;28;20022;-24
2022/01/08 11:25:11;;;;;;;12.00;6.90;;;11.80;45.90;;;;;;5117205;28;20028;-22
2022/01/08 11:27:53;;;;;;;10.88;6.32;;;12.10;46.20;;;;;;5117374;28;20554;-23
2022/01/08 11:30:22;;;;;;;12.57;7.88;;;12.40;42.00;;;;;;5117023;28;20023;-23
2022/01/08 11:32:51;;;;;;;11.00;6.28;;;12.70;40.30;;;;;;5098965;28;20095;-22
2022/01/08 11:35:20;;;;;;;9.68;5.30;;;12.90;42.00;;;;;;5117075;28;20475;-22
2022/01/08 11:37:48;;;;;;;9.40;5.95;;;13.20;42.30;;;;;;5117260;28;20027;-23
2022/01/08 11:40:17;;;;;;;11.18;7.40;;;13.60;42.10;;;;;;5116662;28;20411;-23
2022/01/08 11:42:44;;;;;;;10.27;6.63;;;13.90;41.30;;;;;;5117225;28;20020;-23
2022/01/08 11:45:14;;;;;;;10.80;7.32;;;14.20;40.90;;;;;;5098852;28;20108;-23
2022/01/08 11:47:46;;;;;;;9.98;6.63;;;14.60;40.60;;;;;;5116874;28;20024;-23
2022/01/08 11:50:14;;;;;;;9.82;6.32;;;14.90;38.80;;;;;;5117082;28;20379;-27
2022/01/08 11:52:40;;;;;;;8.73;5.40;;;15.20;38.10;;;;;;5117025;28;20112;-23
2022/01/08 11:55:06;;;;;;;9.80;6.68;;;15.40;38.50;;;;;;5116703;28;20458;-22
2022/01/08 11:57:33;;;;;;;10.02;6.75;;;15.60;38.50;;;;;;5116999;28;20026;-23
2022/01/08 11:59:59;;;;;;;13.80;9.05;;;15.80;37.20;;;;;;5116945;28;20024;-24
2022/01/08 12:02:42;;;;;;;20.50;12.55;;;15.90;36.30;;;;;;5116393;28;20501;-22
2022/01/08 12:05:12;;;;;;;11.18;7.18;;;16.00;35.10;;;;;;5116375;28;20107;-22
2022/01/08 12:07:47;;;;;;;17.10;10.95;;;16.10;36.00;;;;;;5116488;28;20435;-22
2022/01/08 12:10:28;;;;;;;16.92;11.70;;;16.40;36.20;;;;;;5116443;28;20023;-24
2022/01/08 12:13:00;;;;;;;9.45;6.40;;;16.60;36.50;;;;;;5116739;28;20024;-22
2022/01/08 12:15:46;;;;;;;7.70;4.75;;;17.00;37.60;;;;;;5116708;28;20047;-22
2022/01/08 12:18:13;;;;;;;9.13;6.00;;;17.40;36.70;;;;;;5116367;28;20052;-23
2022/01/08 12:20:55;;;;;;;8.60;5.72;;;17.70;35.80;;;;;;5115143;28;20028;-22
2022/01/08 12:23:27;;;;;;;11.82;6.97;;;18.00;35.10;;;;;;5116233;28;20425;-22
2022/01/08 12:25:54;;;;;;;8.73;5.88;;;18.30;35.90;;;;;;5116044;28;20518;-22
2022/01/08 12:28:41;;;;;;;12.20;7.78;;;18.60;35.70;;;;;;5115870;28;20055;-23
2022/01/08 12:31:22;;;;;;;12.23;7.60;;;18.90;34.00;;;;;;5116075;28;20035;-23
2022/01/08 12:34:22;;;;;;;9.15;6.10;;;19.00;30.10;;;;;;5117102;28;20031;-22
2022/01/08 12:36:57;;;;;;;9.35;6.53;;;19.20;33.20;;;;;;5116103;28;20451;-23
2022/01/08 12:39:43;;;;;;;13.55;8.27;;;19.10;30.40;;;;;;5115780;28;20126;-22
2022/01/08 12:42:23;;;;;;;12.43;7.32;;;19.00;29.10;;;;;;5115660;28;20026;-22
2022/01/08 12:45:18;;;;;;;9.80;7.28;;;18.80;31.20;;;;;;5115741;28;20024;-23
2022/01/08 12:47:44;;;;;;;;;;;18.40;30.40;;;;;;5113793;28;20388;-22
2022/01/08 12:50:30;;;;;;;10.27;5.80;;;18.00;28.90;;;;;;5116008;28;20351;-23
2022/01/08 12:53:09;;;;;;;9.77;7.35;;;17.60;32.20;;;;;;5115427;28;20106;-23
2022/01/08 12:55:44;;;;;;;8.70;6.00;;;17.10;32.70;;;;;;5115810;28;20479;-23
2022/01/08 12:58:15;;;;;;;7.75;5.38;;;16.70;35.00;;;;;;5115830;28;20106;-22
2022/01/08 13:00:56;;;;;;;10.98;7.10;;;16.50;36.00;;;;;;5115286;28;20040;-22
2022/01/08 13:03:28;;;;;;;9.27;5.95;;;16.20;34.00;;;;;;5115641;28;20024;-23
2022/01/08 13:06:02;;;;;;;11.57;8.20;;;16.00;36.20;;;;;;5115203;28;20118;-22
2022/01/08 13:08:32;;;;;;;11.82;7.68;;;15.90;36.20;;;;;;5115180;28;20024;-22
2022/01/08 13:11:01;;;;;;;12.55;8.57;;;15.80;36.50;;;;;;5115563;28;20030;-22
2022/01/08 13:13:43;;;;;;;9.45;6.68;;;15.80;37.40;;;;;;5115835;28;20514;-23
2022/01/08 13:16:12;;;;;;;15.27;9.40;;;16.00;37.60;;;;;;5115489;28;20032;-23
2022/01/08 13:18:40;;;;;;;9.32;6.10;;;16.50;36.40;;;;;;5115334;28;20035;-22
2022/01/08 13:21:07;;;;;;;12.45;9.13;;;16.90;36.40;;;;;;5115604;28;20161;-22
2022/01/08 13:23:54;;;;;;;7.93;5.10;;;17.40;36.60;;;;;;5115318;28;20055;-23
2022/01/08 13:26:35;;;;;;;10.15;6.07;;;17.80;35.80;;;;;;5114814;28;20028;-23
2022/01/08 13:29:16;;;;;;;13.48;9.07;;;18.30;35.00;;;;;;5114907;28;20592;-22